createdAt,value
2022-10-15T00:01:39.820Z,97088.81
2022-10-15T00:04:07.510Z,97086.16
2022-10-15T00:06:33.753Z,97082.69
2022-10-15T00:08:59.972Z,97072.78
2022-10-15T00:11:26.193Z,97076.53
2022-10-15T00:13:52.418Z,97081.09
2022-10-15T00:16:18.899Z,97078.69
2022-10-15T00:18:45.105Z,97078.69
2022-10-15T00:21:11.284Z,97076.81
2022-10-15T00:23:37.704Z,97072.25
2022-10-15T00:26:04.029Z,97089.91
2022-10-15T00:28:33.401Z,97081.09
2022-10-15T00:31:00.692Z,97078.41
2022-10-15T00:33:27.003Z,97080.28
2022-10-15T00:35:53.221Z,97079.78
2022-10-15T00:38:19.873Z,97077.09
2022-10-15T00:40:46.098Z,97080.81
2022-10-15T00:43:12.306Z,97076.56
2022-10-15T00:45:38.535Z,97083.78
2022-10-15T00:48:04.748Z,97074.16
2022-10-15T00:50:31.003Z,97071.50
2022-10-15T00:52:57.224Z,97077.09
2022-10-15T00:55:23.418Z,97080.84
2022-10-15T00:57:49.643Z,97081.94
2022-10-15T01:00:15.894Z,97077.38
2022-10-15T01:02:42.096Z,97079.25
2022-10-15T01:05:08.600Z,97073.91
2022-10-15T01:07:34.807Z,97074.97
2022-10-15T01:10:01.067Z,97070.44
2022-10-15T01:12:27.303Z,97062.69
2022-10-15T01:14:54.009Z,97065.34
2022-10-15T01:17:20.395Z,97066.41
2022-10-15T01:19:46.717Z,97054.94
2022-10-15T01:22:13.056Z,97059.47
2022-10-15T01:24:39.461Z,97047.19
2022-10-15T01:27:05.698Z,97053.31
2022-10-15T01:29:31.911Z,97050.94
2022-10-15T01:31:58.152Z,97042.91
2022-10-15T01:34:24.539Z,97047.44
2022-10-15T01:36:50.793Z,97033.31
2022-10-15T01:39:17.473Z,97032.50
2022-10-15T01:41:43.751Z,97025.56
2022-10-15T01:44:09.986Z,97031.97
2022-10-15T01:46:39.303Z,97008.75
2022-10-15T01:49:05.505Z,97030.09
2022-10-15T01:51:31.718Z,97026.34
2022-10-15T01:53:58.088Z,97029.00
2022-10-15T01:56:24.508Z,97042.38
2022-10-15T01:58:50.772Z,97038.13
2022-10-15T02:01:17.085Z,97035.44
2022-10-15T02:03:43.349Z,97035.44
2022-10-15T02:06:11.014Z,97039.97
2022-10-15T02:08:37.418Z,97032.25
2022-10-15T02:11:03.864Z,97033.06
2022-10-15T02:13:30.518Z,97029.03
2022-10-15T02:15:57.015Z,97027.19
2022-10-15T02:18:23.505Z,97027.44
2022-10-15T02:20:49.811Z,97030.41
2022-10-15T02:23:16.029Z,97026.91
2022-10-15T02:25:42.228Z,97028.78
2022-10-15T02:28:08.627Z,97021.03
2022-10-15T02:30:34.897Z,97014.09
2022-10-15T02:33:01.537Z,97007.16
2022-10-15T02:35:27.781Z,97008.22
2022-10-15T02:37:53.968Z,97011.19
2022-10-15T02:40:20.420Z,97001.53
2022-10-15T02:42:46.644Z,97004.22
2022-10-15T02:45:12.889Z,97006.09
2022-10-15T02:47:39.088Z,97007.16
2022-10-15T02:50:05.330Z,97002.09
2022-10-15T02:52:31.692Z,96989.00
2022-10-15T02:54:57.933Z,96994.38
2022-10-15T02:57:24.363Z,96988.22
2022-10-15T02:59:50.718Z,96982.06
2022-10-15T03:02:19.220Z,96996.50
2022-10-15T03:04:45.748Z,96994.91
2022-10-15T03:07:11.954Z,96995.69
2022-10-15T03:09:38.155Z,96994.91
2022-10-15T03:12:04.410Z,96989.81
2022-10-15T03:16:56.786Z,96979.41
2022-10-15T03:19:23.059Z,96985.03
2022-10-15T03:21:49.328Z,96986.88
2022-10-15T03:24:15.546Z,96979.94
2022-10-15T03:26:41.756Z,96986.34
2022-10-15T03:29:08.142Z,96990.06
2022-10-15T03:31:34.415Z,97000.75
2022-10-15T03:34:00.649Z,96990.34
2022-10-15T03:36:26.873Z,96994.88
2022-10-15T03:38:53.225Z,96993.28
2022-10-15T03:41:19.470Z,96994.34
2022-10-15T03:43:45.680Z,96993.56
2022-10-15T03:46:11.900Z,96991.94
2022-10-15T03:48:38.113Z,97004.53
2022-10-15T03:51:04.451Z,97003.72
2022-10-15T03:53:30.644Z,97004.53
2022-10-15T03:55:56.930Z,96994.91
2022-10-15T03:58:23.139Z,96994.09
2022-10-15T04:00:49.398Z,96995.16
2022-10-15T04:03:15.630Z,96994.38
2022-10-15T04:05:41.842Z,96997.56
2022-10-15T04:08:08.055Z,97001.59
2022-10-15T04:10:34.280Z,97000.78
2022-10-15T04:13:00.543Z,97006.13
2022-10-15T04:15:26.804Z,97007.97
2022-10-15T04:20:19.150Z,97018.94
2022-10-15T04:22:45.497Z,97021.06
2022-10-15T04:25:11.702Z,97017.63
2022-10-15T04:27:40.008Z,97017.88
2022-10-15T04:30:06.264Z,97018.94
2022-10-15T04:32:32.480Z,97018.13
2022-10-15T04:34:58.709Z,97017.59
2022-10-15T04:37:25.516Z,97023.75
2022-10-15T04:39:52.220Z,97028.03
2022-10-15T04:42:18.411Z,97021.06
2022-10-15T04:44:44.682Z,97016.81
2022-10-15T04:47:14.817Z,97008.28
2022-10-15T04:49:41.192Z,97011.75
2022-10-15T04:52:07.407Z,97018.16
2022-10-15T04:54:33.640Z,97016.56
2022-10-15T04:56:59.887Z,97021.09
2022-10-15T04:59:26.120Z,97019.50
2022-10-15T05:01:52.443Z,97002.66
2022-10-15T05:04:18.758Z,97003.75
2022-10-15T05:06:45.013Z,97001.31
2022-10-15T05:09:11.259Z,97002.41
2022-10-15T05:11:37.896Z,97003.50
2022-10-15T05:14:04.114Z,97002.41
2022-10-15T05:16:30.483Z,97009.88
2022-10-15T05:18:56.685Z,97017.91
2022-10-15T05:21:23.108Z,97014.41
2022-10-15T05:23:49.382Z,97011.75
2022-10-15T05:26:15.580Z,97008.28
2022-10-15T05:28:41.887Z,96998.66
2022-10-15T05:31:08.193Z,97012.28
2022-10-15T05:33:34.874Z,97029.13
2022-10-15T05:36:01.087Z,97024.81
2022-10-15T05:38:27.407Z,97032.84
2022-10-15T05:40:53.609Z,97033.09
2022-10-15T05:43:19.828Z,97048.34
2022-10-15T05:45:46.072Z,97036.84
2022-10-15T05:48:12.571Z,97036.06
2022-10-15T05:50:38.775Z,97043.25
2022-10-15T05:53:04.973Z,97046.72
2022-10-15T05:55:31.149Z,97047.81
2022-10-15T05:57:57.348Z,97050.47
2022-10-15T06:00:23.578Z,97052.34
2022-10-15T06:02:50.150Z,97052.59
2022-10-15T06:05:16.421Z,97055.28
2022-10-15T06:07:42.630Z,97056.34
2022-10-15T06:10:08.835Z,97056.34
2022-10-15T06:12:35.102Z,97053.94
2022-10-15T06:15:01.379Z,97055.00
2022-10-15T06:17:27.589Z,97051.53
2022-10-15T06:19:53.778Z,97055.28
2022-10-15T06:22:20.085Z,97056.06
2022-10-15T06:24:46.421Z,97057.94
2022-10-15T06:27:12.699Z,97057.13
2022-10-15T06:29:39.402Z,97060.63
2022-10-15T06:32:05.656Z,97059.00
2022-10-15T06:34:31.920Z,97067.81
2022-10-15T06:39:26.334Z,97067.81
2022-10-15T06:41:52.513Z,97070.50
2022-10-15T06:44:18.899Z,97075.81
2022-10-15T06:46:45.112Z,97070.50
2022-10-15T06:49:11.609Z,97077.41
2022-10-15T06:51:37.847Z,97080.09
2022-10-15T06:54:04.159Z,97083.56
2022-10-15T06:56:30.374Z,97086.22
2022-10-15T06:58:56.611Z,97096.63
2022-10-15T07:01:22.807Z,97092.09
2022-10-15T07:03:49.025Z,97103.31
2022-10-15T07:06:15.236Z,97110.53
2022-10-15T07:08:41.442Z,97110.28
2022-10-15T07:11:07.648Z,97102.78
2022-10-15T07:13:33.848Z,97112.41
2022-10-15T07:16:00.090Z,97107.06
2022-10-15T07:18:26.482Z,97112.13
2022-10-15T07:20:52.696Z,97118.56
2022-10-15T07:23:20.236Z,97120.69
2022-10-15T07:25:48.124Z,97127.13
2022-10-15T07:28:14.514Z,97131.66
2022-10-15T07:30:40.740Z,97134.59
2022-10-15T07:33:06.948Z,97132.19
2022-10-15T07:35:33.214Z,97145.56
2022-10-15T07:37:59.455Z,97145.00
2022-10-15T07:40:25.722Z,97152.47
2022-10-15T07:42:52.415Z,97144.19
2022-10-15T07:45:19.101Z,97150.88
2022-10-15T07:47:45.348Z,97143.41
2022-10-15T07:50:11.568Z,97154.59
2022-10-15T07:52:37.795Z,97161.00
2022-10-15T07:55:04.072Z,97157.28
2022-10-15T07:57:30.285Z,97161.28
2022-10-15T07:59:56.492Z,97162.91
2022-10-15T08:02:22.948Z,97161.53
2022-10-15T08:04:49.399Z,97163.16
2022-10-15T08:07:15.665Z,97161.00
2022-10-15T08:09:41.965Z,97163.69
2022-10-15T08:12:08.305Z,97166.34
2022-10-15T08:14:34.524Z,97167.63
2022-10-15T08:17:00.746Z,97166.56
2022-10-15T08:19:27.104Z,97167.34
2022-10-15T08:21:53.329Z,97169.47
2022-10-15T08:24:19.549Z,97171.63
2022-10-15T08:26:45.960Z,97163.88
2022-10-15T08:29:12.460Z,97169.44
2022-10-15T08:31:38.780Z,97172.91
2022-10-15T08:34:05.027Z,97158.19
2022-10-15T08:36:31.272Z,97160.59
2022-10-15T08:38:57.720Z,97166.19
2022-10-15T08:41:23.940Z,97169.41
2022-10-15T08:43:50.315Z,97176.06
2022-10-15T08:48:47.637Z,97177.13
2022-10-15T08:51:13.867Z,97180.06
2022-10-15T08:53:40.082Z,97176.53
2022-10-15T08:56:06.306Z,97178.41
2022-10-15T08:58:34.712Z,97171.41
2022-10-15T09:01:03.185Z,97173.28
2022-10-15T09:03:29.408Z,97171.41
2022-10-15T09:05:55.642Z,97164.41
2022-10-15T09:08:22.043Z,97174.06
2022-10-15T09:10:48.447Z,97174.59
2022-10-15T09:13:16.544Z,97171.34
2022-10-15T09:15:42.976Z,97166.00
2022-10-15T09:18:09.200Z,97169.19
2022-10-15T09:20:35.587Z,97170.78
2022-10-15T09:23:01.897Z,97178.25
2022-10-15T09:25:31.247Z,97170.47
2022-10-15T09:27:58.303Z,97168.84
2022-10-15T09:30:24.703Z,97162.91
2022-10-15T09:32:54.256Z,97168.28
2022-10-15T09:35:21.040Z,97172.78
2022-10-15T09:37:47.502Z,97165.84
2022-10-15T09:40:13.729Z,97167.44
2022-10-15T09:42:40.424Z,97178.66
2022-10-15T09:45:06.638Z,97178.63
2022-10-15T09:47:32.938Z,97176.47
2022-10-15T09:49:59.174Z,97172.19
2022-10-15T09:52:25.732Z,97174.31
2022-10-15T09:54:52.301Z,97182.03
2022-10-15T09:57:18.517Z,97190.31
2022-10-15T09:59:44.741Z,97186.25
2022-10-15T10:02:10.976Z,97189.13
2022-10-15T10:04:37.351Z,97189.34
2022-10-15T10:07:04.103Z,97184.81
2022-10-15T10:09:30.332Z,97185.91
2022-10-15T10:11:56.628Z,97185.34
2022-10-15T10:14:22.944Z,97190.13
2022-10-15T10:16:50.291Z,97192.22
2022-10-15T10:19:16.652Z,97197.03
2022-10-15T10:21:42.939Z,97182.03
2022-10-15T10:24:09.180Z,97174.00
2022-10-15T10:26:35.408Z,97164.38
2022-10-15T10:29:05.195Z,97169.75
2022-10-15T10:31:36.338Z,97171.81
2022-10-15T10:34:02.653Z,97162.97
2022-10-15T10:36:28.923Z,97164.03
2022-10-15T10:38:55.244Z,97161.66
2022-10-15T10:41:21.461Z,97164.03
2022-10-15T10:43:47.760Z,97176.38
2022-10-15T10:46:13.979Z,97177.97
2022-10-15T10:48:40.199Z,97176.91
2022-10-15T10:51:09.181Z,97183.28
2022-10-15T10:53:36.312Z,97187.00
2022-10-15T10:56:02.526Z,97183.53
2022-10-15T10:58:28.734Z,97181.94
2022-10-15T11:00:55.108Z,97174.94
2022-10-15T11:03:21.508Z,97183.25
2022-10-15T11:05:47.818Z,97173.88
2022-10-15T11:08:14.045Z,97175.75
2022-10-15T11:10:40.268Z,97174.38
2022-10-15T11:13:06.657Z,97167.94
2022-10-15T11:15:32.888Z,97160.69
2022-10-15T11:17:59.189Z,97167.34
2022-10-15T11:20:36.774Z,97159.31
2022-10-15T11:23:11.676Z,97149.69
2022-10-15T11:25:37.909Z,97157.72
2022-10-15T11:28:04.174Z,97148.09
2022-10-15T11:30:30.584Z,97150.78
2022-10-15T11:33:11.822Z,97159.59
2022-10-15T11:35:54.382Z,97150.19
2022-10-15T11:38:20.946Z,97149.63
2022-10-15T11:40:47.257Z,97146.94
2022-10-15T11:43:13.636Z,97145.59
2022-10-15T11:45:40.007Z,97145.28
2022-10-15T11:48:06.698Z,97149.28
2022-10-15T11:50:32.958Z,97146.34
2022-10-15T11:52:59.363Z,97142.84
2022-10-15T11:55:25.582Z,97140.97
2022-10-15T11:57:51.829Z,97129.94
2022-10-15T12:00:18.044Z,97135.03
2022-10-15T12:02:44.353Z,97124.28
2022-10-15T12:05:10.805Z,97122.13
2022-10-15T12:07:37.196Z,97126.09
2022-10-15T12:10:03.540Z,97122.59
2022-10-15T12:12:29.814Z,97128.97
2022-10-15T12:14:56.185Z,97124.63
2022-10-15T12:20:06.558Z,97120.38
2022-10-15T12:22:34.128Z,97094.50
2022-10-15T12:25:00.991Z,97120.84
2022-10-15T12:27:27.506Z,97118.47
2022-10-15T12:29:54.151Z,97109.63
2022-10-15T12:32:20.513Z,97115.53
2022-10-15T12:34:46.757Z,97113.16
2022-10-15T12:37:12.982Z,97105.91
2022-10-15T12:39:54.417Z,97102.41
2022-10-15T12:42:20.691Z,97100.03
2022-10-15T12:44:47.031Z,97099.75
2022-10-15T12:47:13.289Z,97100.84
2022-10-15T12:49:39.656Z,97097.34
2022-10-15T12:52:05.884Z,97098.16
2022-10-15T12:54:32.155Z,97104.28
2022-10-15T12:56:59.540Z,97105.09
2022-10-15T12:59:25.863Z,97107.50
2022-10-15T13:01:52.350Z,97103.22
2022-10-15T13:04:18.696Z,97100.53
2022-10-15T13:06:45.227Z,97104.03
2022-10-15T13:09:11.521Z,97096.75
2022-10-15T13:11:37.791Z,97098.38
2022-10-15T13:14:04.185Z,97096.47
2022-10-15T13:16:30.387Z,97097.28
2022-10-15T13:18:56.697Z,97094.59
2022-10-15T13:21:23.265Z,97093.78
2022-10-15T13:23:49.674Z,97093.00
2022-10-15T13:26:15.965Z,97075.28
2022-10-15T13:28:42.377Z,97074.75
2022-10-15T13:31:08.731Z,97072.84
2022-10-15T13:33:34.997Z,97077.13
2022-10-15T13:36:01.224Z,97071.47
2022-10-15T13:38:27.525Z,97062.91
2022-10-15T13:40:53.725Z,97060.22
2022-10-15T13:43:20.114Z,97060.22
2022-10-15T13:45:46.400Z,97050.59
2022-10-15T13:48:12.975Z,97053.28
2022-10-15T13:50:39.285Z,97049.78
2022-10-15T13:53:08.733Z,97051.66
2022-10-15T13:55:35.048Z,97048.97
2022-10-15T13:58:01.485Z,97062.41
2022-10-15T14:00:28.218Z,97052.75
2022-10-15T14:02:54.441Z,97058.13
2022-10-15T14:05:20.729Z,97061.09
2022-10-15T14:07:47.033Z,97061.38
2022-10-15T14:10:13.303Z,97058.69
2022-10-15T14:12:39.566Z,97059.78
2022-10-15T14:15:06.056Z,97066.25
2022-10-15T14:17:32.501Z,97069.47
2022-10-15T14:20:25.242Z,97070.56
2022-10-15T14:22:45.366Z,97060.94
2022-10-15T14:27:39.872Z,97060.44
2022-10-15T14:30:09.808Z,97042.34
2022-10-15T14:32:37.661Z,97055.06
2022-10-15T14:35:06.078Z,97052.66
2022-10-15T14:37:36.268Z,97061.50
2022-10-15T14:40:02.622Z,97050.00
2022-10-15T14:42:28.909Z,97043.81
2022-10-15T14:44:55.178Z,97041.13
2022-10-15T14:47:23.159Z,97047.56
2022-10-15T14:49:49.776Z,97045.69
2022-10-15T14:52:16.006Z,97040.63
2022-10-15T14:54:42.312Z,97043.59
2022-10-15T14:57:09.780Z,97048.97
2022-10-15T14:59:35.986Z,97068.03
2022-10-15T15:02:03.197Z,97061.03
2022-10-15T15:04:29.669Z,97071.00
2022-10-15T15:06:55.892Z,97070.19
2022-10-15T15:09:22.170Z,97068.56
2022-10-15T15:11:48.523Z,97068.88
2022-10-15T15:14:14.739Z,97064.59
2022-10-15T15:16:40.970Z,97065.66
2022-10-15T15:19:07.203Z,97056.84
2022-10-15T15:21:33.395Z,97054.44
2022-10-15T15:24:00.028Z,97048.28
2022-10-15T15:26:26.240Z,97045.59
2022-10-15T15:28:52.674Z,97044.78
2022-10-15T15:31:19.070Z,97022.69
2022-10-15T15:33:45.351Z,97046.66
2022-10-15T15:36:12.039Z,97033.53
2022-10-15T15:38:38.403Z,97045.09
2022-10-15T15:41:04.762Z,97049.13
2022-10-15T15:43:31.061Z,97056.38
2022-10-15T15:45:57.295Z,97052.38
2022-10-15T15:48:23.628Z,97055.06
2022-10-15T15:50:49.991Z,97055.34
2022-10-15T15:53:16.305Z,97059.91
2022-10-15T15:55:42.728Z,97062.06
2022-10-15T15:58:09.037Z,97062.31
2022-10-15T16:00:35.282Z,97067.69
2022-10-15T16:03:01.671Z,97067.22
2022-10-15T16:05:28.015Z,97071.75
2022-10-15T16:07:54.233Z,97075.50
2022-10-15T16:10:20.866Z,97079.28
2022-10-15T16:12:47.510Z,97076.88
2022-10-15T16:15:14.988Z,97076.88
2022-10-15T16:17:41.737Z,97069.91
2022-10-15T16:20:07.992Z,97087.09
2022-10-15T16:22:34.325Z,97070.19
2022-10-15T16:25:01.040Z,97075.84
2022-10-15T16:27:28.161Z,97082.31
2022-10-15T16:29:54.770Z,97082.59
2022-10-15T16:32:21.013Z,97081.78
2022-10-15T16:34:47.294Z,97074.03
2022-10-15T16:37:13.562Z,97083.94
2022-10-15T16:39:40.352Z,97083.94
2022-10-15T16:42:06.767Z,97078.88
2022-10-15T16:44:33.175Z,97087.22
2022-10-15T16:46:59.417Z,97090.66
2022-10-15T16:49:25.707Z,97086.41
2022-10-15T16:51:51.998Z,97085.88
2022-10-15T16:54:18.238Z,97095.78
2022-10-15T16:56:45.399Z,97091.53
2022-10-15T16:59:14.477Z,97083.47
2022-10-15T17:01:40.755Z,97089.13
2022-10-15T17:04:07.085Z,97083.25
2022-10-15T17:06:35.375Z,97073.34
2022-10-15T17:09:01.657Z,97082.44
2022-10-15T17:11:27.965Z,97094.25
2022-10-15T17:13:54.649Z,97106.06
2022-10-15T17:16:20.938Z,97107.94
2022-10-15T17:18:47.218Z,97117.34
2022-10-15T17:21:13.479Z,97117.34
2022-10-15T17:23:39.731Z,97117.63
2022-10-15T17:26:06.038Z,97120.31
2022-10-15T17:28:32.262Z,97116.03
2022-10-15T17:30:58.503Z,97124.06
2022-10-15T17:33:24.839Z,97135.09
2022-10-15T17:35:51.110Z,97133.47
2022-10-15T17:38:20.438Z,97134.56
2022-10-15T17:40:48.811Z,97135.63
2022-10-15T17:43:15.054Z,97126.00
2022-10-15T17:45:41.364Z,97118.25
2022-10-15T17:48:07.738Z,97117.44
2022-10-15T17:50:33.971Z,97118.53
2022-10-15T17:53:00.238Z,97120.41
2022-10-15T17:55:26.623Z,97131.94
2022-10-15T17:57:53.198Z,97138.34
2022-10-15T18:00:19.465Z,97131.13
2022-10-15T18:02:45.798Z,97145.56
2022-10-15T18:05:12.116Z,97144.00
2022-10-15T18:07:38.460Z,97140.50
2022-10-15T18:10:04.839Z,97147.78
2022-10-15T18:12:31.049Z,97152.84
2022-10-15T18:14:57.320Z,97158.47
2022-10-15T18:17:23.849Z,97167.81
2022-10-15T18:19:50.542Z,97172.91
2022-10-15T18:22:16.743Z,97179.06
2022-10-15T18:24:43.213Z,97189.50
2022-10-15T18:27:09.457Z,97198.88
2022-10-15T18:29:38.810Z,97182.84
2022-10-15T18:32:05.087Z,97208.50
2022-10-15T18:34:31.386Z,97213.88
2022-10-15T18:36:57.708Z,97212.00
2022-10-15T18:39:24.190Z,97224.31
2022-10-15T18:41:50.644Z,97224.31
2022-10-15T18:44:17.157Z,97243.06
2022-10-15T18:46:43.385Z,97237.72
2022-10-15T18:49:09.599Z,97244.16
2022-10-15T18:51:35.823Z,97242.28
2022-10-15T18:54:02.323Z,97249.53
2022-10-15T18:56:28.546Z,97253.00
2022-10-15T18:58:54.806Z,97253.00
2022-10-15T19:01:23.825Z,97251.38
2022-10-15T19:03:51.077Z,97246.84
2022-10-15T19:06:17.460Z,97238.78
2022-10-15T19:08:43.861Z,97228.34
2022-10-15T19:11:10.189Z,97221.91
2022-10-15T19:13:36.495Z,97226.47
2022-10-15T19:16:03.116Z,97211.19
2022-10-15T19:18:29.920Z,97229.13
2022-10-15T19:20:56.957Z,97220.31
2022-10-15T19:23:23.629Z,97231.03
2022-10-15T19:25:50.034Z,97238.28
2022-10-15T19:28:16.366Z,97239.09
2022-10-15T19:30:42.667Z,97240.94
2022-10-15T19:33:09.312Z,97246.31
2022-10-15T19:35:35.591Z,97250.09
2022-10-15T19:38:01.796Z,97244.72
2022-10-15T19:40:28.114Z,97248.47
2022-10-15T19:42:54.531Z,97255.69
2022-10-15T19:45:22.089Z,97253.00
2022-10-15T19:47:48.479Z,97267.50
2022-10-15T19:50:14.936Z,97270.19
2022-10-15T19:52:41.316Z,97270.19
2022-10-15T19:55:07.609Z,97270.19
2022-10-15T19:57:33.999Z,97270.47
2022-10-15T20:00:00.340Z,97282.00
2022-10-15T20:02:26.694Z,97292.72
2022-10-15T20:04:52.982Z,97293.78
2022-10-15T20:07:19.469Z,97280.38
2022-10-15T20:09:45.884Z,97282.53
2022-10-15T20:12:12.619Z,97294.88
2022-10-15T20:14:39.012Z,97284.44
2022-10-15T20:17:05.348Z,97287.09
2022-10-15T20:19:31.794Z,97286.28
2022-10-15T20:21:58.214Z,97292.72
2022-10-15T20:24:24.481Z,97309.59
2022-10-15T20:26:50.767Z,97318.72
2022-10-15T20:29:17.097Z,97310.69
2022-10-15T20:31:43.658Z,97324.88
2022-10-15T20:34:09.888Z,97322.47
2022-10-15T20:36:36.154Z,97325.16
2022-10-15T20:39:02.456Z,97332.41
2022-10-15T20:41:28.799Z,97336.69
2022-10-15T20:43:55.330Z,97336.97
2022-10-15T20:46:21.660Z,97339.63
2022-10-15T20:48:48.054Z,97338.03
2022-10-15T20:51:14.942Z,97332.66
2022-10-15T20:53:41.201Z,97332.66
2022-10-15T20:56:07.862Z,97338.84
2022-10-15T20:58:34.154Z,97333.47
2022-10-15T21:01:00.459Z,97345.28
2022-10-15T21:03:27.005Z,97346.88
2022-10-15T21:05:53.262Z,97348.75
2022-10-15T21:08:19.722Z,97354.91
2022-10-15T21:10:45.984Z,97357.88
2022-10-15T21:13:12.676Z,97356.78
2022-10-15T21:15:39.003Z,97361.34
2022-10-15T21:18:05.295Z,97373.66
2022-10-15T21:20:31.605Z,97374.75
2022-10-15T21:22:57.911Z,97385.47
2022-10-15T21:25:24.123Z,97379.31
2022-10-15T21:27:50.412Z,97378.50
2022-10-15T21:30:16.687Z,97384.94
2022-10-15T21:32:43.134Z,97388.94
2022-10-15T21:35:12.195Z,97405.31
2022-10-15T21:37:41.360Z,97394.88
2022-10-15T21:40:07.978Z,97399.69
2022-10-15T21:42:34.579Z,97404.53
2022-10-15T21:45:01.015Z,97407.47
2022-10-15T21:47:28.651Z,97412.28
2022-10-15T21:49:55.365Z,97418.75
2022-10-15T21:52:22.013Z,97417.16
2022-10-15T21:54:48.410Z,97425.44
2022-10-15T21:57:14.737Z,97422.25
2022-10-15T21:59:41.185Z,97423.59
2022-10-15T22:02:08.202Z,97432.72
2022-10-15T22:04:34.642Z,97438.06
2022-10-15T22:07:00.872Z,97433.72
2022-10-15T22:09:27.135Z,97439.94
2022-10-15T22:11:53.381Z,97432.13
2022-10-15T22:14:19.646Z,97437.50
2022-10-15T22:16:45.880Z,97442.84
2022-10-15T22:19:12.104Z,97440.19
2022-10-15T22:21:38.353Z,97438.00
2022-10-15T22:24:04.595Z,97446.06
2022-10-15T22:26:30.784Z,97439.09
2022-10-15T22:28:57.142Z,97439.09
2022-10-15T22:31:23.926Z,97442.88
2022-10-15T22:33:50.311Z,97454.34
2022-10-15T22:36:16.607Z,97455.44
2022-10-15T22:38:42.988Z,97465.34
2022-10-15T22:41:09.327Z,97467.22
2022-10-15T22:43:35.976Z,97459.19
2022-10-15T22:46:02.443Z,97459.19
2022-10-15T22:48:28.726Z,97459.44
2022-10-15T22:50:54.957Z,97458.41
2022-10-15T22:53:21.206Z,97464.31
2022-10-15T22:55:47.463Z,97449.28
2022-10-15T22:58:13.698Z,97452.25
2022-10-15T23:00:39.961Z,97449.03
2022-10-15T23:03:07.755Z,97438.59
2022-10-15T23:05:33.952Z,97451.16
2022-10-15T23:08:00.284Z,97443.69
2022-10-15T23:10:26.645Z,97456.25
2022-10-15T23:12:53.175Z,97468.06
2022-10-15T23:15:19.439Z,97458.41
2022-10-15T23:17:45.640Z,97463.75
2022-10-15T23:20:11.946Z,97459.75
2022-10-15T23:22:38.200Z,97444.50
2022-10-15T23:25:04.455Z,97459.22
2022-10-15T23:27:31.723Z,97461.09
2022-10-15T23:30:13.976Z,97465.91
2022-10-15T23:32:44.669Z,97460.81
2022-10-15T23:35:13.976Z,97456.28
2022-10-15T23:37:45.381Z,97450.38
2022-10-15T23:40:11.632Z,97453.06
2022-10-15T23:42:37.929Z,97456.81
2022-10-15T23:45:04.239Z,97454.16
2022-10-15T23:47:30.493Z,97457.88
2022-10-15T23:49:56.729Z,97467.53
2022-10-15T23:52:23.097Z,97468.31
2022-10-15T23:54:49.360Z,97471.78
2022-10-15T23:57:15.680Z,97466.44
2022-10-15T23:59:41.909Z,97462.97
